sensor_id;sensor_type;location;lat;lon;timestamp;pressure;altitude;pressure_sealevel;temperature;humidity
35443;BME280;21561;55.654;37.592;2023-03-15T00:02:02;98710.22;;;3.54;63.12
35443;BME280;21561;55.654;37.592;2023-03-15T00:04:29;98722.16;;;3.49;63.18
35443;BME280;21561;55.654;37.592;2023-03-15T00:06:58;98711.91;;;3.49;63.10
35443;BME280;21561;55.654;37.592;2023-03-15T00:09:25;98710.19;;;3.51;63.45
35443;BME280;21561;55.654;37.592;2023-03-15T00:11:52;98716.19;;;3.49;63.89
35443;BME280;21561;55.654;37.592;2023-03-15T00:14:22;98712.75;;;3.50;63.50
35443;BME280;21561;55.654;37.592;2023-03-15T00:16:49;98726.47;;;3.50;63.97
35443;BME280;21561;55.654;37.592;2023-03-15T00:19:15;98717.00;;;3.46;64.04
35443;BME280;21561;55.654;37.592;2023-03-15T00:21:42;98720.44;;;3.45;64.05
35443;BME280;21561;55.654;37.592;2023-03-15T00:24:10;98714.44;;;3.46;64.18
35443;BME280;21561;55.654;37.592;2023-03-15T00:26:37;98727.25;;;3.46;64.82
35443;BME280;21561;55.654;37.592;2023-03-15T00:29:04;98714.41;;;3.44;64.80
35443;BME280;21561;55.654;37.592;2023-03-15T00:31:31;98728.09;;;3.40;64.97
35443;BME280;21561;55.654;37.592;2023-03-15T00:33:58;98711.81;;;3.37;65.30
35443;BME280;21561;55.654;37.592;2023-03-15T00:36:24;98722.09;;;3.38;65.33
35443;BME280;21561;55.654;37.592;2023-03-15T00:38:53;98716.09;;;3.41;65.06
35443;BME280;21561;55.654;37.592;2023-03-15T00:41:21;98708.44;;;3.39;65.30
35443;BME280;21561;55.654;37.592;2023-03-15T00:43:49;98719.50;;;3.37;65.74
35443;BME280;21561;55.654;37.592;2023-03-15T00:46:17;98704.97;;;3.39;65.75
35443;BME280;21561;55.654;37.592;2023-03-15T00:48:47;98713.53;;;3.38;66.05
35443;BME280;21561;55.654;37.592;2023-03-15T00:51:16;98716.94;;;3.35;66.03
35443;BME280;21561;55.654;37.592;2023-03-15T00:53:45;98711.81;;;3.37;66.38
35443;BME280;21561;55.654;37.592;2023-03-15T00:56:21;98712.66;;;3.34;66.16
35443;BME280;21561;55.654;37.592;2023-03-15T00:58:49;98716.91;;;3.34;66.38
35443;BME280;21561;55.654;37.592;2023-03-15T01:01:22;98718.63;;;3.33;66.57
35443;BME280;21561;55.654;37.592;2023-03-15T01:03:50;98711.78;;;3.34;66.48
35443;BME280;21561;55.654;37.592;2023-03-15T01:06:19;98709.22;;;3.34;66.99
35443;BME280;21561;55.654;37.592;2023-03-15T01:08:47;98716.91;;;3.31;67.13
35443;BME280;21561;55.654;37.592;2023-03-15T01:11:19;98713.47;;;3.30;67.18
35443;BME280;21561;55.654;37.592;2023-03-15T01:13:46;98706.63;;;3.28;67.53
35443;BME280;21561;55.654;37.592;2023-03-15T01:16:13;98713.47;;;3.25;67.61
35443;BME280;21561;55.654;37.592;2023-03-15T01:18:41;98715.16;;;3.23;67.93
35443;BME280;21561;55.654;37.592;2023-03-15T01:21:11;98714.28;;;3.23;68.22
35443;BME280;21561;55.654;37.592;2023-03-15T01:23:38;98706.59;;;3.21;68.56
35443;BME280;21561;55.654;37.592;2023-03-15T01:26:07;98718.56;;;3.22;68.56
35443;BME280;21561;55.654;37.592;2023-03-15T01:28:35;98718.53;;;3.19;68.61
35443;BME280;21561;55.654;37.592;2023-03-15T01:31:02;98711.72;;;3.21;68.62
35443;BME280;21561;55.654;37.592;2023-03-15T01:33:29;98715.13;;;3.20;68.88
35443;BME280;21561;55.654;37.592;2023-03-15T01:36:02;98708.28;;;3.22;69.13
35443;BME280;21561;55.654;37.592;2023-03-15T01:38:29;98709.13;;;3.18;69.20
35443;BME280;21561;55.654;37.592;2023-03-15T01:40:57;98713.38;;;3.19;69.54
35443;BME280;21561;55.654;37.592;2023-03-15T01:43:26;98704.03;;;3.20;69.28
35443;BME280;21561;55.654;37.592;2023-03-15T01:51:38;98705.75;;;3.25;69.90
35443;BME280;21561;55.654;37.592;2023-03-15T01:56:48;98707.41;;;3.19;70.69
35443;BME280;21561;55.654;37.592;2023-03-15T01:59:18;98709.16;;;3.24;69.93
35443;BME280;21561;55.654;37.592;2023-03-15T02:01:47;98710.84;;;3.18;70.56
35443;BME280;21561;55.654;37.592;2023-03-15T02:04:17;98713.38;;;3.16;71.11
35443;BME280;21561;55.654;37.592;2023-03-15T02:06:51;98725.34;;;3.14;71.40
35443;BME280;21561;55.654;37.592;2023-03-15T02:09:39;98725.38;;;3.20;70.92
35443;BME280;21561;55.654;37.592;2023-03-15T02:12:08;98717.63;;;3.16;71.37
35443;BME280;21561;55.654;37.592;2023-03-15T02:14:35;98725.34;;;3.17;71.30
35443;BME280;21561;55.654;37.592;2023-03-15T02:17:02;98716.78;;;3.15;71.34
35443;BME280;21561;55.654;37.592;2023-03-15T02:19:51;98717.63;;;3.16;71.19
35443;BME280;21561;55.654;37.592;2023-03-15T02:27:44;98727.03;;;3.15;71.90
35443;BME280;21561;55.654;37.592;2023-03-15T02:30:11;98725.34;;;3.14;71.55
35443;BME280;21561;55.654;37.592;2023-03-15T02:32:37;98713.38;;;3.16;71.41
35443;BME280;21561;55.654;37.592;2023-03-15T02:35:05;98718.50;;;3.13;71.85
35443;BME280;21561;55.654;37.592;2023-03-15T02:37:32;98715.06;;;3.11;71.80
35443;BME280;21561;55.654;37.592;2023-03-15T02:39:59;98715.06;;;3.11;71.99
35443;BME280;21561;55.654;37.592;2023-03-15T02:42:26;98725.31;;;3.11;71.86
35443;BME280;21561;55.654;37.592;2023-03-15T02:44:54;98721.88;;;3.12;71.98
35443;BME280;21561;55.654;37.592;2023-03-15T02:47:26;98731.28;;;3.10;72.21
35443;BME280;21561;55.654;37.592;2023-03-15T02:49:55;98720.13;;;3.06;72.42
35443;BME280;21561;55.654;37.592;2023-03-15T02:52:22;98722.69;;;3.06;72.55
35443;BME280;21561;55.654;37.592;2023-03-15T02:54:49;98734.66;;;3.04;72.38
35443;BME280;21561;55.654;37.592;2023-03-15T02:57:17;98720.13;;;3.02;72.71
35443;BME280;21561;55.654;37.592;2023-03-15T02:59:45;98722.66;;;2.99;72.89
35443;BME280;21561;55.654;37.592;2023-03-15T03:02:12;98732.91;;;2.99;72.85
35443;BME280;21561;55.654;37.592;2023-03-15T03:04:39;98736.31;;;2.96;73.19
35443;BME280;21561;55.654;37.592;2023-03-15T03:07:07;98725.16;;;2.93;73.18
35443;BME280;21561;55.654;37.592;2023-03-15T03:09:34;98720.88;;;2.92;73.62
35443;BME280;21561;55.654;37.592;2023-03-15T03:12:01;98729.41;;;2.92;73.47
35443;BME280;21561;55.654;37.592;2023-03-15T03:14:28;98742.22;;;2.91;73.67
35443;BME280;21561;55.654;37.592;2023-03-15T03:16:54;98749.03;;;2.89;73.56
35443;BME280;21561;55.654;37.592;2023-03-15T03:19:21;98726.81;;;2.91;73.37
35443;BME280;21561;55.654;37.592;2023-03-15T03:21:52;98740.50;;;2.90;73.46
35443;BME280;21561;55.654;37.592;2023-03-15T03:24:19;98731.94;;;2.88;73.54
35443;BME280;21561;55.654;37.592;2023-03-15T03:26:46;98732.84;;;2.91;73.65
35443;BME280;21561;55.654;37.592;2023-03-15T03:29:13;98738.78;;;2.89;73.56
35443;BME280;21561;55.654;37.592;2023-03-15T03:31:43;98728.50;;;2.87;73.31
35443;BME280;21561;55.654;37.592;2023-03-15T03:34:10;98735.31;;;2.83;73.51
35443;BME280;21561;55.654;37.592;2023-03-15T03:36:42;98734.50;;;2.86;73.41
35443;BME280;21561;55.654;37.592;2023-03-15T03:39:09;98742.16;;;2.84;73.57
35443;BME280;21561;55.654;37.592;2023-03-15T03:41:36;98737.88;;;2.83;74.06
35443;BME280;21561;55.654;37.592;2023-03-15T03:44:03;98742.16;;;2.84;73.54
35443;BME280;21561;55.654;37.592;2023-03-15T03:46:30;98731.88;;;2.81;73.86
35443;BME280;21561;55.654;37.592;2023-03-15T03:48:57;98741.28;;;2.81;73.90
35443;BME280;21561;55.654;37.592;2023-03-15T03:51:24;98735.31;;;2.80;73.98
35443;BME280;21561;55.654;37.592;2023-03-15T03:53:51;98738.72;;;2.82;73.91
35443;BME280;21561;55.654;37.592;2023-03-15T03:56:17;98751.50;;;2.79;73.52
35443;BME280;21561;55.654;37.592;2023-03-15T03:58:44;98749.78;;;2.80;73.85
35443;BME280;21561;55.654;37.592;2023-03-15T04:01:11;98733.56;;;2.79;73.86
35443;BME280;21561;55.654;37.592;2023-03-15T04:03:38;98748.13;;;2.80;73.74
35443;BME280;21561;55.654;37.592;2023-03-15T04:06:05;98752.38;;;2.78;73.85
35443;BME280;21561;55.654;37.592;2023-03-15T04:08:31;98744.66;;;2.80;73.91
35443;BME280;21561;55.654;37.592;2023-03-15T04:10:58;98756.66;;;2.82;73.44
35443;BME280;21561;55.654;37.592;2023-03-15T04:13:25;98758.38;;;2.83;73.50
35443;BME280;21561;55.654;37.592;2023-03-15T04:15:52;98760.91;;;2.80;73.78
35443;BME280;21561;55.654;37.592;2023-03-15T04:18:23;98755.81;;;2.83;73.59
35443;BME280;21561;55.654;37.592;2023-03-15T04:20:50;98756.66;;;2.82;73.63
35443;BME280;21561;55.654;37.592;2023-03-15T04:23:23;98756.72;;;2.85;73.76
35443;BME280;21561;55.654;37.592;2023-03-15T04:25:51;98754.16;;;2.85;73.40
35443;BME280;21561;55.654;37.592;2023-03-15T04:28:20;98742.16;;;2.84;73.40
35443;BME280;21561;55.654;37.592;2023-03-15T04:30:49;98764.38;;;2.87;73.30
35443;BME280;21561;55.654;37.592;2023-03-15T04:33:16;98757.56;;;2.88;73.20
35443;BME280;21561;55.654;37.592;2023-03-15T04:35:43;98748.16;;;2.86;73.21
35443;BME280;21561;55.654;37.592;2023-03-15T04:38:10;98773.78;;;2.88;73.37
35443;BME280;21561;55.654;37.592;2023-03-15T04:40:37;98760.97;;;2.86;73.44
35443;BME280;21561;55.654;37.592;2023-03-15T04:43:04;98771.22;;;2.86;73.40
35443;BME280;21561;55.654;37.592;2023-03-15T04:45:31;98766.09;;;2.86;73.25
35443;BME280;21561;55.654;37.592;2023-03-15T04:47:59;98785.69;;;2.83;73.65
35443;BME280;21561;55.654;37.592;2023-03-15T04:50:27;98766.03;;;2.79;73.58
35443;BME280;21561;55.654;37.592;2023-03-15T04:52:57;98765.13;;;2.75;73.24
35443;BME280;21561;55.654;37.592;2023-03-15T04:55:24;98773.66;;;2.74;73.20
35443;BME280;21561;55.654;37.592;2023-03-15T04:57:51;98773.66;;;2.74;73.30
35443;BME280;21561;55.654;37.592;2023-03-15T05:00:18;98787.31;;;2.73;73.40
35443;BME280;21561;55.654;37.592;2023-03-15T05:02:45;98778.78;;;2.71;73.45
35443;BME280;21561;55.654;37.592;2023-03-15T05:05:17;98784.72;;;2.70;73.45
35443;BME280;21561;55.654;37.592;2023-03-15T05:07:44;98779.56;;;2.67;73.41
35443;BME280;21561;55.654;37.592;2023-03-15T05:10:11;98782.13;;;2.67;72.93
35443;BME280;21561;55.654;37.592;2023-03-15T05:12:38;98782.97;;;2.66;73.10
35443;BME280;21561;55.654;37.592;2023-03-15T05:15:05;98793.22;;;2.69;72.76
35443;BME280;21561;55.654;37.592;2023-03-15T05:17:33;98786.38;;;2.65;72.58
35443;BME280;21561;55.654;37.592;2023-03-15T05:19:59;98804.34;;;2.68;72.97
35443;BME280;21561;55.654;37.592;2023-03-15T05:22:44;98807.75;;;2.68;72.65
35443;BME280;21561;55.654;37.592;2023-03-15T05:25:11;98810.34;;;2.70;72.77
35443;BME280;21561;55.654;37.592;2023-03-15T05:27:39;98803.47;;;2.69;72.40
35443;BME280;21561;55.654;37.592;2023-03-15T05:30:06;98814.63;;;2.73;72.43
35443;BME280;21561;55.654;37.592;2023-03-15T05:32:34;98806.09;;;2.74;72.25
35443;BME280;21561;55.654;37.592;2023-03-15T05:35:04;98803.59;;;2.78;72.06
35443;BME280;21561;55.654;37.592;2023-03-15T05:37:32;98818.13;;;2.79;72.11
35443;BME280;21561;55.654;37.592;2023-03-15T05:39:59;98820.72;;;2.82;71.54
35443;BME280;21561;55.654;37.592;2023-03-15T05:42:28;98811.38;;;2.86;70.91
35443;BME280;21561;55.654;37.592;2023-03-15T05:44:55;98834.47;;;2.91;71.22
35443;BME280;21561;55.654;37.592;2023-03-15T05:47:22;98824.22;;;2.91;70.84
35443;BME280;21561;55.654;37.592;2023-03-15T05:49:49;98833.69;;;2.96;70.66
35443;BME280;21561;55.654;37.592;2023-03-15T05:52:16;98825.97;;;2.95;70.82
35443;BME280;21561;55.654;37.592;2023-03-15T05:54:43;98817.47;;;2.99;70.76
35443;BME280;21561;55.654;37.592;2023-03-15T05:57:10;98836.31;;;3.02;70.83
35443;BME280;21561;55.654;37.592;2023-03-15T05:59:37;98825.22;;;3.06;70.57
35443;BME280;21561;55.654;37.592;2023-03-15T06:02:03;98838.91;;;3.09;70.40
35443;BME280;21561;55.654;37.592;2023-03-15T06:04:30;98832.13;;;3.14;70.38
35443;BME280;21561;55.654;37.592;2023-03-15T06:06:57;98838.13;;;3.16;70.05
35443;BME280;21561;55.654;37.592;2023-03-15T06:09:24;98842.47;;;3.20;70.24
35443;BME280;21561;55.654;37.592;2023-03-15T06:11:51;98833.09;;;3.23;69.70
35443;BME280;21561;55.654;37.592;2023-03-15T06:14:19;98833.09;;;3.27;69.91
35443;BME280;21561;55.654;37.592;2023-03-15T06:16:46;98844.25;;;3.30;70.11
35443;BME280;21561;55.654;37.592;2023-03-15T06:19:12;98845.16;;;3.32;69.88
35443;BME280;21561;55.654;37.592;2023-03-15T06:21:39;98840.03;;;3.37;69.83
35443;BME280;21561;55.654;37.592;2023-03-15T06:24:06;98831.50;;;3.38;69.92
35443;BME280;21561;55.654;37.592;2023-03-15T06:26:33;98854.63;;;3.42;69.12
35443;BME280;21561;55.654;37.592;2023-03-15T06:29:00;98844.34;;;3.42;69.47
35443;BME280;21561;55.654;37.592;2023-03-15T06:31:27;98853.75;;;3.42;69.86
35443;BME280;21561;55.654;37.592;2023-03-15T06:33:54;98833.28;;;3.45;69.55
35443;BME280;21561;55.654;37.592;2023-03-15T06:36:21;98852.16;;;3.50;69.88
35443;BME280;21561;55.654;37.592;2023-03-15T06:38:51;98853.00;;;3.52;69.42
35443;BME280;21561;55.654;37.592;2023-03-15T06:41:20;98838.53;;;3.60;69.16
35443;BME280;21561;55.654;37.592;2023-03-15T06:43:47;98857.34;;;3.59;69.50
35443;BME280;21561;55.654;37.592;2023-03-15T06:46:14;98857.38;;;3.64;70.02
35443;BME280;21561;55.654;37.592;2023-03-15T06:48:41;98847.13;;;3.62;69.71
35443;BME280;21561;55.654;37.592;2023-03-15T06:51:08;98840.28;;;3.65;69.56
35443;BME280;21561;55.654;37.592;2023-03-15T06:53:35;98869.41;;;3.70;69.64
35443;BME280;21561;55.654;37.592;2023-03-15T06:56:01;98860.84;;;3.71;69.42
35443;BME280;21561;55.654;37.592;2023-03-15T06:58:28;98848.09;;;3.80;69.65
35443;BME280;21561;55.654;37.592;2023-03-15T07:00:55;98846.41;;;3.85;69.18
35443;BME280;21561;55.654;37.592;2023-03-15T07:03:22;98855.88;;;3.92;69.02
35443;BME280;21561;55.654;37.592;2023-03-15T07:05:49;98851.66;;;3.99;68.96
35443;BME280;21561;55.654;37.592;2023-03-15T07:08:20;98854.19;;;3.97;68.60
35443;BME280;21561;55.654;37.592;2023-03-15T07:10:48;98866.19;;;4.01;68.92
35443;BME280;21561;55.654;37.592;2023-03-15T07:13:16;98883.38;;;4.06;68.59
35443;BME280;21561;55.654;37.592;2023-03-15T07:15:43;98856.81;;;4.05;69.10
35443;BME280;21561;55.654;37.592;2023-03-15T07:18:10;98853.44;;;4.09;68.81
35443;BME280;21561;55.654;37.592;2023-03-15T07:20:37;98861.16;;;4.17;69.16
35443;BME280;21561;55.654;37.592;2023-03-15T07:23:04;98855.19;;;4.21;69.03
35443;BME280;21561;55.654;37.592;2023-03-15T07:25:30;98875.78;;;4.26;68.69
35443;BME280;21561;55.654;37.592;2023-03-15T07:28:01;98874.94;;;4.31;68.58
35443;BME280;21561;55.654;37.592;2023-03-15T07:30:28;98875.81;;;4.35;68.33
35443;BME280;21561;55.654;37.592;2023-03-15T07:32:55;98868.13;;;4.39;68.38
35443;BME280;21561;55.654;37.592;2023-03-15T07:35:22;98872.47;;;4.44;68.21
35443;BME280;21561;55.654;37.592;2023-03-15T07:37:49;98875.03;;;4.48;68.07
35443;BME280;21561;55.654;37.592;2023-03-15T07:40:16;98879.38;;;4.58;67.74
35443;BME280;21561;55.654;37.592;2023-03-15T07:42:43;98872.56;;;4.67;67.43
35443;BME280;21561;55.654;37.592;2023-03-15T07:45:11;98867.47;;;4.76;67.46
35443;BME280;21561;55.654;37.592;2023-03-15T07:47:38;98864.91;;;4.84;67.07
35443;BME280;21561;55.654;37.592;2023-03-15T07:50:05;98887.19;;;4.88;67.02
35443;BME280;21561;55.654;37.592;2023-03-15T07:52:33;98872.66;;;4.96;67.09
35443;BME280;21561;55.654;37.592;2023-03-15T07:55:00;98878.66;;;4.98;67.06
35443;BME280;21561;55.654;37.592;2023-03-15T07:57:28;98888.97;;;5.01;66.74
35443;BME280;21561;55.654;37.592;2023-03-15T07:59:55;98880.41;;;5.05;66.48
35443;BME280;21561;55.654;37.592;2023-03-15T08:02:22;98885.59;;;5.18;66.44
35443;BME280;21561;55.654;37.592;2023-03-15T08:04:49;98870.16;;;5.24;66.55
35443;BME280;21561;55.654;37.592;2023-03-15T08:07:16;98893.28;;;5.16;66.37
35443;BME280;21561;55.654;37.592;2023-03-15T08:09:43;98887.28;;;5.19;66.65
35443;BME280;21561;55.654;37.592;2023-03-15T08:12:10;98888.16;;;5.22;66.68
35443;BME280;21561;55.654;37.592;2023-03-15T08:14:37;98896.72;;;5.16;66.57
35443;BME280;21561;55.654;37.592;2023-03-15T08:17:04;98883.00;;;5.18;66.47
35443;BME280;21561;55.654;37.592;2023-03-15T08:19:31;98897.56;;;5.19;66.94
35443;BME280;21561;55.654;37.592;2023-03-15T08:21:57;98893.31;;;5.28;66.64
35443;BME280;21561;55.654;37.592;2023-03-15T08:24:24;98908.78;;;5.31;66.25
35443;BME280;21561;55.654;37.592;2023-03-15T08:26:52;98886.44;;;5.29;66.80
35443;BME280;21561;55.654;37.592;2023-03-15T08:29:19;98895.91;;;5.30;66.85
35443;BME280;21561;55.654;37.592;2023-03-15T08:31:46;98891.63;;;5.40;66.88
35443;BME280;21561;55.654;37.592;2023-03-15T08:34:13;98900.19;;;5.43;66.76
35443;BME280;21561;55.654;37.592;2023-03-15T08:36:41;98895.94;;;5.42;67.25
35443;BME280;21561;55.654;37.592;2023-03-15T08:39:08;98913.06;;;5.43;67.37
35443;BME280;21561;55.654;37.592;2023-03-15T08:41:35;98928.53;;;5.49;67.17
35443;BME280;21561;55.654;37.592;2023-03-15T08:44:02;98913.94;;;5.47;67.41
35443;BME280;21561;55.654;37.592;2023-03-15T08:46:29;98890.78;;;5.58;67.11
35443;BME280;21561;55.654;37.592;2023-03-15T08:48:56;98907.09;;;5.67;67.29
35443;BME280;21561;55.654;37.592;2023-03-15T08:51:23;98892.53;;;5.71;66.72
35443;BME280;21561;55.654;37.592;2023-03-15T08:53:52;98907.09;;;5.75;67.04
35443;BME280;21561;55.654;37.592;2023-03-15T08:56:19;98903.66;;;5.68;67.14
35443;BME280;21561;55.654;37.592;2023-03-15T08:58:46;98909.66;;;5.60;67.69
35443;BME280;21561;55.654;37.592;2023-03-15T09:01:14;98893.38;;;5.62;67.40
35443;BME280;21561;55.654;37.592;2023-03-15T09:03:41;98918.22;;;5.55;67.55
35443;BME280;21561;55.654;37.592;2023-03-15T09:06:08;98916.53;;;5.51;68.09
35443;BME280;21561;55.654;37.592;2023-03-15T09:08:35;98906.22;;;5.51;68.06
35443;BME280;21561;55.654;37.592;2023-03-15T09:11:03;98909.66;;;5.57;68.17
35443;BME280;21561;55.654;37.592;2023-03-15T09:13:30;98902.81;;;5.59;68.30
35443;BME280;21561;55.654;37.592;2023-03-15T09:15:56;98906.25;;;5.64;68.37
35443;BME280;21561;55.654;37.592;2023-03-15T09:18:23;98901.94;;;5.66;68.57
35443;BME280;21561;55.654;37.592;2023-03-15T09:20:51;98905.41;;;5.71;68.94
35443;BME280;21561;55.654;37.592;2023-03-15T09:23:18;98901.97;;;5.77;68.15
35443;BME280;21561;55.654;37.592;2023-03-15T09:25:45;98902.81;;;5.80;68.19
35443;BME280;21561;55.654;37.592;2023-03-15T09:28:11;98913.13;;;5.79;68.63
35443;BME280;21561;55.654;37.592;2023-03-15T09:30:40;98904.53;;;5.78;68.36
35443;BME280;21561;55.654;37.592;2023-03-15T09:33:07;98901.09;;;5.79;68.33
35443;BME280;21561;55.654;37.592;2023-03-15T09:35:34;98910.56;;;5.83;68.64
35443;BME280;21561;55.654;37.592;2023-03-15T09:38:01;98932.88;;;5.80;68.94
35443;BME280;21561;55.654;37.592;2023-03-15T09:40:32;98914.81;;;5.84;68.90
35443;BME280;21561;55.654;37.592;2023-03-15T09:43:14;98908.81;;;5.90;68.86
35443;BME280;21561;55.654;37.592;2023-03-15T09:48:40;98906.25;;;5.95;68.39
35443;BME280;21561;55.654;37.592;2023-03-15T09:51:17;98907.97;;;6.11;68.32
35443;BME280;21561;55.654;37.592;2023-03-15T09:54:14;98889.06;;;6.24;67.76
35443;BME280;21561;55.654;37.592;2023-03-15T09:56:59;98895.91;;;6.35;67.99
35443;BME280;21561;55.654;37.592;2023-03-15T09:59:37;98889.03;;;6.37;67.12
35443;BME280;21561;55.654;37.592;2023-03-15T10:02:20;98885.63;;;6.41;67.45
35443;BME280;21561;55.654;37.592;2023-03-15T10:05:05;98881.31;;;6.44;67.33
35443;BME280;21561;55.654;37.592;2023-03-15T10:07:34;98880.41;;;6.53;67.06
35443;BME280;21561;55.654;37.592;2023-03-15T10:10:01;98876.06;;;6.67;67.13
35443;BME280;21561;55.654;37.592;2023-03-15T10:12:33;98874.31;;;6.79;66.68
35443;BME280;21561;55.654;37.592;2023-03-15T10:15:38;98859.66;;;6.87;65.68
35443;BME280;21561;55.654;37.592;2023-03-15T10:21:09;98861.28;;;7.06;65.26
35443;BME280;21561;55.654;37.592;2023-03-15T10:23:52;98850.09;;;7.11;65.05
35443;BME280;21561;55.654;37.592;2023-03-15T10:26:30;98845.66;;;7.28;64.72
35443;BME280;21561;55.654;37.592;2023-03-15T10:29:02;98838.63;;;7.50;63.60
35443;BME280;21561;55.654;37.592;2023-03-15T10:31:37;98826.41;;;7.72;63.32
35443;BME280;21561;55.654;37.592;2023-03-15T10:34:11;98817.66;;;7.86;62.24
35443;BME280;21561;55.654;37.592;2023-03-15T10:36:43;98842.50;;;8.00;62.05
35443;BME280;21561;55.654;37.592;2023-03-15T10:39:11;98850.38;;;7.90;62.34
35443;BME280;21561;55.654;37.592;2023-03-15T10:41:44;98826.22;;;7.91;61.31
35443;BME280;21561;55.654;37.592;2023-03-15T10:44:20;98853.59;;;8.10;61.63
35443;BME280;21561;55.654;37.592;2023-03-15T10:47:06;98863.88;;;8.16;61.66
35443;BME280;21561;55.654;37.592;2023-03-15T10:49:48;98839.84;;;8.08;60.59
35443;BME280;21561;55.654;37.592;2023-03-15T10:52:42;98839.38;;;8.54;60.25
35443;BME280;21561;55.654;37.592;2023-03-15T10:55:14;98790.50;;;9.00;58.19
35443;BME280;21561;55.654;37.592;2023-03-15T10:57:53;98768.56;;;9.24;56.45
35443;BME280;21561;55.654;37.592;2023-03-15T11:00:30;98742.69;;;9.22;56.03
35443;BME280;21561;55.654;37.592;2023-03-15T11:03:15;98735.34;;;9.50;54.92
35443;BME280;21561;55.654;37.592;2023-03-15T11:05:48;98733.69;;;9.93;54.58
35443;BME280;21561;55.654;37.592;2023-03-15T11:08:18;98690.75;;;10.25;52.96
35443;BME280;21561;55.654;37.592;2023-03-15T11:10:53;98672.41;;;10.34;52.05
35443;BME280;21561;55.654;37.592;2023-03-15T11:13:26;98654.19;;;10.37;51.64
35443;BME280;21561;55.654;37.592;2023-03-15T11:15:56;98700.44;;;10.13;52.51
35443;BME280;21561;55.654;37.592;2023-03-15T11:21:10;98790.53;;;9.52;54.61
35443;BME280;21561;55.654;37.592;2023-03-15T11:23:45;98801.66;;;9.59;54.93
35443;BME280;21561;55.654;37.592;2023-03-15T11:26:21;98803.31;;;9.63;55.25
35443;BME280;21561;55.654;37.592;2023-03-15T11:29:04;98782.44;;;9.72;54.72
35443;BME280;21561;55.654;37.592;2023-03-15T11:31:33;98777.53;;;9.57;55.02
35443;BME280;21561;55.654;37.592;2023-03-15T11:34:08;98784.47;;;9.55;54.72
35443;BME280;21561;55.654;37.592;2023-03-15T11:36:41;98808.03;;;9.38;55.89
35443;BME280;21561;55.654;37.592;2023-03-15T11:39:14;98811.44;;;9.40;55.31
35443;BME280;21561;55.654;37.592;2023-03-15T11:42:40;98837.13;;;9.54;56.13
35443;BME280;21561;55.654;37.592;2023-03-15T11:44:50;98792.41;;;9.94;54.75
35443;BME280;21561;55.654;37.592;2023-03-15T11:47:39;98707.50;;;10.50;52.08
35443;BME280;21561;55.654;37.592;2023-03-15T11:50:12;98720.88;;;10.32;52.44
35443;BME280;21561;55.654;37.592;2023-03-15T11:52:40;98723.41;;;9.88;53.48
35443;BME280;21561;55.654;37.592;2023-03-15T11:55:18;98794.50;;;9.73;54.76
35443;BME280;21561;55.654;37.592;2023-03-15T11:57:48;98792.41;;;9.94;54.30
35443;BME280;21561;55.654;37.592;2023-03-15T12:03:27;98787.94;;;10.02;54.39
35443;BME280;21561;55.654;37.592;2023-03-15T12:05:59;98831.00;;;9.58;55.77
35443;BME280;21561;55.654;37.592;2023-03-15T12:11:00;98913.31;;;8.71;58.27
35443;BME280;21561;55.654;37.592;2023-03-15T12:13:29;98929.09;;;8.46;58.70
35443;BME280;21561;55.654;37.592;2023-03-15T12:15:57;98961.19;;;8.19;59.81
35443;BME280;21561;55.654;37.592;2023-03-15T12:18:31;98977.69;;;8.04;60.45
35443;BME280;21561;55.654;37.592;2023-03-15T12:21:31;98989.84;;;7.90;60.99
35443;BME280;21561;55.654;37.592;2023-03-15T12:24:29;98989.94;;;7.71;61.67
35443;BME280;21561;55.654;37.592;2023-03-15T12:27:02;98980.50;;;7.70;62.11
35443;BME280;21561;55.654;37.592;2023-03-15T12:29:33;98944.06;;;8.06;61.18
35443;BME280;21561;55.654;37.592;2023-03-15T12:34:35;98895.56;;;8.37;59.44
35443;BME280;21561;55.654;37.592;2023-03-15T12:37:32;98905.91;;;8.35;59.69
35443;BME280;21561;55.654;37.592;2023-03-15T12:42:58;98896.66;;;8.11;59.99
35443;BME280;21561;55.654;37.592;2023-03-15T12:45:39;98888.22;;;8.79;59.49
35443;BME280;21561;55.654;37.592;2023-03-15T12:53:15;98780.34;;;9.93;54.36
35443;BME280;21561;55.654;37.592;2023-03-15T12:55:44;98747.34;;;10.01;53.54
35443;BME280;21561;55.654;37.592;2023-03-15T12:58:12;98766.66;;;9.85;53.97
35443;BME280;21561;55.654;37.592;2023-03-15T13:00:43;98785.78;;;9.78;54.20
35443;BME280;21561;55.654;37.592;2023-03-15T13:03:12;98796.13;;;9.81;53.58
35443;BME280;21561;55.654;37.592;2023-03-15T13:11:23;98850.00;;;9.60;55.88
35443;BME280;21561;55.654;37.592;2023-03-15T13:19:45;98801.69;;;9.56;54.78
35443;BME280;21561;55.654;37.592;2023-03-15T13:28:45;98857.22;;;9.40;55.83
35443;BME280;21561;55.654;37.592;2023-03-15T13:31:21;98812.47;;;9.83;54.56
35443;BME280;21561;55.654;37.592;2023-03-15T13:33:51;98775.06;;;9.98;53.64
35443;BME280;21561;55.654;37.592;2023-03-15T13:36:27;98739.00;;;10.30;52.83
35443;BME280;21561;55.654;37.592;2023-03-15T13:39:31;98723.34;;;10.37;52.42
35443;BME280;21561;55.654;37.592;2023-03-15T13:42:04;98731.06;;;10.40;51.81
35443;BME280;21561;55.654;37.592;2023-03-15T13:44:32;98722.38;;;10.41;52.01
35443;BME280;21561;55.654;37.592;2023-03-15T13:46:59;98694.47;;;10.54;50.96
35443;BME280;21561;55.654;37.592;2023-03-15T13:49:33;98674.13;;;10.73;50.71
35443;BME280;21561;55.654;37.592;2023-03-15T13:52:03;98666.53;;;10.65;50.43
35443;BME280;21561;55.654;37.592;2023-03-15T13:54:38;98675.19;;;10.64;50.26
35443;BME280;21561;55.654;37.592;2023-03-15T13:57:10;98649.66;;;10.84;49.88
35443;BME280;21561;55.654;37.592;2023-03-15T13:59:59;98628.81;;;10.87;49.39
35443;BME280;21561;55.654;37.592;2023-03-15T14:05:10;98659.63;;;10.64;49.82
35443;BME280;21561;55.654;37.592;2023-03-15T14:07:40;98689.09;;;10.61;50.32
35443;BME280;21561;55.654;37.592;2023-03-15T14:10:24;98687.06;;;10.74;49.50
35443;BME280;21561;55.654;37.592;2023-03-15T14:12:52;98662.19;;;10.65;49.41
35443;BME280;21561;55.654;37.592;2023-03-15T14:18:17;98675.69;;;10.80;50.25